Weather at Laurence G Hanscom Field

Public forecast

Using degrees Fahrenheit for public forecast. Weather courtesy of forecast.io.

Current aviation weather report (METAR) for Laurence G Hanscom Field

2024/02/25 04:51 (retrieved 50 minutes ago)

KBED 250451Z AUTO 33008KT 10SM CLR M08/M19 A2999 RMK AO2 SLP173 T10831194 400331083

Closest aviation forecast (TAF) to Laurence G Hanscom Field

Forecast is more than 6 hours old.

Closest forecast is Westover Metropolitan Airport / Westover Air Reserve Base, 57.7 nm (106.9 km) WSW.

2024/02/24 21:47 Ammendment (retrieved 8 hours ago)

TAF AMD KCEF 242126Z 2421/2524 33010G16KT 9999 FEW040 SCT090 BKN250 510103 QNH2959INS BECMG 2500/2501 33009KT 9999 SCT250 QNH2985INS WND VRB06KT AFT 2506 BECMG 2516/2517 20009KT 9999 BKN150 BKN220 QNH3005INS TX01/2518Z TNM12/2512Z LAST NO AMDS AFT 2422 NEXT 2518